Time;durP1;ratioP1;P1;durP2;ratioP2;P2;SDS_P1;SDS_P2;PMS_P1;PMS_P2;Temp;Humidity;BMP_temperature;BMP_pressure;BME280_temperature;BME280_humidity;BME280_pressure;Samples;Min_cycle;Max_cycle;Signal;HPM_P1;HPM_P2
2022/10/22 00:01:19;;;;;;;16.65;10.48;;;;;;;;;;5028363;28;20190;-71
2022/10/22 00:03:45;;;;;;;16.70;10.10;;;;;;;;;;5037148;28;20174;-71
2022/10/22 00:06:10;;;;;;;23.20;10.95;;;;;;;;;;5038630;28;20198;-71
2022/10/22 00:08:36;;;;;;;17.58;10.88;;;;;;;;;;5036246;28;20463;-71
2022/10/22 00:11:27;;;;;;;15.25;10.48;;;;;;;;;;5034117;28;20257;-71
2022/10/22 00:13:52;;;;;;;17.65;9.95;;;;;;;;;;5033904;28;20214;-71
2022/10/22 00:16:18;;;;;;;15.98;10.05;;;;;;;;;;5040100;28;20173;-71
2022/10/22 00:18:43;;;;;;;17.83;10.23;;;;;;;;;;5035483;28;20170;-71
2022/10/22 00:21:11;;;;;;;18.52;10.82;;;;;;;;;;5038078;28;20281;-71
2022/10/22 00:23:41;;;;;;;16.05;11.07;;;;;;;;;;5039310;28;20269;-71
2022/10/22 00:26:07;;;;;;;14.57;10.85;;;;;;;;;;5029305;28;20186;-71
2022/10/22 00:28:32;;;;;;;20.20;11.43;;;;;;;;;;5042358;28;20193;-71
2022/10/22 00:30:59;;;;;;;15.15;10.18;;;;;;;;;;5041729;28;20220;-71
2022/10/22 00:33:25;;;;;;;19.58;12.00;;;;;;;;;;5034131;28;20226;-71
2022/10/22 00:35:50;;;;;;;22.35;12.23;;;;;;;;;;5045137;28;20196;-71
2022/10/22 00:38:16;;;;;;;19.95;12.75;;;;;;;;;;5034967;28;20273;-71
2022/10/22 00:40:41;;;;;;;18.00;11.57;;;;;;;;;;5034628;28;20236;-71
2022/10/22 00:43:12;;;;;;;22.02;12.20;;;;;;;;;;5036207;28;20201;-71
2022/10/22 00:45:37;;;;;;;17.70;11.35;;;;;;;;;;5040691;28;20181;-71
2022/10/22 00:48:08;;;;;;;21.55;12.77;;;;;;;;;;5039396;28;20661;-71
2022/10/22 00:50:45;;;;;;;16.42;11.20;;;;;;;;;;5038777;28;20211;-71
2022/10/22 00:53:18;;;;;;;21.05;11.73;;;;;;;;;;5032077;28;20497;-70
2022/10/22 00:55:46;;;;;;;20.95;12.35;;;;;;;;;;5031755;28;20703;-71
2022/10/22 00:58:12;;;;;;;23.30;12.70;;;;;;;;;;5030632;28;20775;-71
2022/10/22 01:00:38;;;;;;;20.75;12.52;;;;;;;;;;5038573;28;20257;-71
2022/10/22 01:03:03;;;;;;;17.67;12.98;;;;;;;;;;5035458;28;20281;-71
2022/10/22 01:05:31;;;;;;;18.40;11.52;;;;;;;;;;5034912;28;20654;-71
2022/10/22 01:07:57;;;;;;;22.40;12.52;;;;;;;;;;5029379;28;20848;-71
2022/10/22 01:10:28;;;;;;;21.02;13.65;;;;;;;;;;5039476;28;20189;-71
2022/10/22 01:13:02;;;;;;;20.58;11.93;;;;;;;;;;5035857;28;20621;-71
2022/10/22 01:15:47;;;;;;;23.58;13.20;;;;;;;;;;5039098;28;20631;-71
2022/10/22 01:18:24;;;;;;;23.00;12.95;;;;;;;;;;5027912;28;20213;-71
2022/10/22 01:21:16;;;;;;;19.63;12.45;;;;;;;;;;5039957;28;20188;-71
2022/10/22 01:24:08;;;;;;;23.33;13.30;;;;;;;;;;5038722;28;20683;-71
2022/10/22 01:27:02;;;;;;;25.15;13.68;;;;;;;;;;5032415;28;20772;-71
2022/10/22 01:29:41;;;;;;;19.98;13.73;;;;;;;;;;5037798;28;20268;-71
2022/10/22 01:32:13;;;;;;;24.25;14.05;;;;;;;;;;5039354;28;20230;-71
2022/10/22 01:34:40;;;;;;;25.00;12.65;;;;;;;;;;5032251;28;20259;-71
2022/10/22 01:37:07;;;;;;;27.00;14.05;;;;;;;;;;5030482;28;20590;-71
2022/10/22 01:39:34;;;;;;;23.42;14.15;;;;;;;;;;5027515;28;20178;-71
2022/10/22 01:42:00;;;;;;;24.27;13.55;;;;;;;;;;5030020;28;20273;-71
2022/10/22 01:44:26;;;;;;;25.70;14.90;;;;;;;;;;5036088;28;20257;-71
2022/10/22 01:47:04;;;;;;;22.02;13.68;;;;;;;;;;5037962;28;20285;-71
2022/10/22 01:49:48;;;;;;;26.48;14.57;;;;;;;;;;5029664;28;20842;-71
2022/10/22 01:52:28;;;;;;;29.10;15.57;;;;;;;;;;5030914;28;20182;-71
2022/10/22 01:55:21;;;;;;;27.60;14.60;;;;;;;;;;5041764;28;20711;-71
2022/10/22 01:58:21;;;;;;;23.88;13.40;;;;;;;;;;5037486;28;20182;-71
2022/10/22 02:00:59;;;;;;;30.02;15.45;;;;;;;;;;5040667;28;20189;-71
2022/10/22 02:03:29;;;;;;;26.38;15.32;;;;;;;;;;5029336;28;20193;-71
2022/10/22 02:06:00;;;;;;;26.77;14.38;;;;;;;;;;5034240;28;20436;-71
2022/10/22 02:08:32;;;;;;;30.25;16.00;;;;;;;;;;5040544;28;20515;-71
2022/10/22 02:10:59;;;;;;;24.85;14.98;;;;;;;;;;5042230;28;20181;-71
2022/10/22 02:13:33;;;;;;;25.85;15.57;;;;;;;;;;5036486;28;20656;-71
2022/10/22 02:16:01;;;;;;;26.30;15.63;;;;;;;;;;5035474;28;20177;-71
2022/10/22 02:18:29;;;;;;;26.88;15.40;;;;;;;;;;5036402;28;20269;-71
2022/10/22 02:20:56;;;;;;;31.67;16.13;;;;;;;;;;5032866;28;20190;-71
2022/10/22 02:23:22;;;;;;;27.75;14.88;;;;;;;;;;5038024;28;20185;-71
2022/10/22 02:25:54;;;;;;;24.75;15.32;;;;;;;;;;5041963;28;20181;-71
2022/10/22 02:28:25;;;;;;;30.73;16.52;;;;;;;;;;5045732;28;20288;-71
2022/10/22 02:30:53;;;;;;;29.30;16.10;;;;;;;;;;5051848;28;20227;-71
2022/10/22 02:33:27;;;;;;;33.38;17.23;;;;;;;;;;5040390;28;20646;-72
2022/10/22 02:35:54;;;;;;;28.40;15.68;;;;;;;;;;5033730;28;20696;-72
2022/10/22 02:38:22;;;;;;;29.92;16.65;;;;;;;;;;5044728;28;20214;-72
2022/10/22 02:40:47;;;;;;;32.80;15.43;;;;;;;;;;5049625;28;20185;-71
2022/10/22 02:43:12;;;;;;;30.55;15.90;;;;;;;;;;5047597;28;20219;-71
2022/10/22 02:45:38;;;;;;;32.38;16.88;;;;;;;;;;5041140;28;20182;-71
2022/10/22 02:48:04;;;;;;;28.33;16.55;;;;;;;;;;5032135;28;20189;-72
2022/10/22 02:50:29;;;;;;;32.60;17.75;;;;;;;;;;5036521;28;20189;-71
2022/10/22 02:52:54;;;;;;;28.50;14.60;;;;;;;;;;5048748;28;20391;-71
2022/10/22 02:55:19;;;;;;;31.27;17.42;;;;;;;;;;5034574;28;20271;-71
2022/10/22 02:57:45;;;;;;;31.98;16.25;;;;;;;;;;5034565;28;20194;-71
2022/10/22 03:00:11;;;;;;;28.77;16.35;;;;;;;;;;5048427;28;20190;-71
2022/10/22 03:02:36;;;;;;;36.58;17.85;;;;;;;;;;5044219;28;20213;-71
2022/10/22 03:05:03;;;;;;;32.65;17.65;;;;;;;;;;5034307;28;20654;-72
2022/10/22 03:07:28;;;;;;;35.00;17.33;;;;;;;;;;5030298;28;20178;-72
2022/10/22 03:09:54;;;;;;;35.58;17.95;;;;;;;;;;5038283;28;20173;-71
2022/10/22 03:12:19;;;;;;;37.25;17.30;;;;;;;;;;5045994;28;20193;-71
2022/10/22 03:14:44;;;;;;;46.72;19.15;;;;;;;;;;5041330;28;20216;-71
2022/10/22 03:17:10;;;;;;;32.88;19.40;;;;;;;;;;5034411;28;20280;-72
2022/10/22 03:19:35;;;;;;;29.55;16.75;;;;;;;;;;5048147;28;20535;-71
2022/10/22 03:22:23;;;;;;;31.42;18.23;;;;;;;;;;5041375;28;20200;-71
2022/10/22 03:24:53;;;;;;;34.70;18.58;;;;;;;;;;5030632;28;20575;-74
2022/10/22 03:27:20;;;;;;;38.35;18.67;;;;;;;;;;5043497;28;20186;-71
2022/10/22 03:29:46;;;;;;;32.25;18.08;;;;;;;;;;5040124;28;20194;-71
2022/10/22 03:32:12;;;;;;;37.05;19.40;;;;;;;;;;5043931;28;20234;-71
2022/10/22 03:34:37;;;;;;;34.65;17.00;;;;;;;;;;5038818;28;20680;-71
2022/10/22 03:37:03;;;;;;;32.80;15.82;;;;;;;;;;5036520;28;20245;-71
2022/10/22 03:39:31;;;;;;;44.20;19.55;;;;;;;;;;5044222;28;20213;-72
2022/10/22 03:41:57;;;;;;;39.15;19.35;;;;;;;;;;5043118;28;20650;-72
2022/10/22 03:44:23;;;;;;;42.45;19.95;;;;;;;;;;5044507;28;20240;-72
2022/10/22 03:46:49;;;;;;;41.40;20.13;;;;;;;;;;5033247;28;20277;-71
2022/10/22 03:49:14;;;;;;;39.03;19.90;;;;;;;;;;5036673;28;20213;-71
2022/10/22 03:51:39;;;;;;;38.28;19.00;;;;;;;;;;5032888;28;20217;-71
2022/10/22 03:54:05;;;;;;;41.47;19.52;;;;;;;;;;5041250;28;20305;-71
2022/10/22 03:56:31;;;;;;;42.63;18.92;;;;;;;;;;5049715;28;20185;-71
2022/10/22 03:58:58;;;;;;;37.40;18.60;;;;;;;;;;5040025;28;20188;-72
2022/10/22 04:01:24;;;;;;;36.70;19.67;;;;;;;;;;5037532;28;21168;-71
2022/10/22 04:03:49;;;;;;;51.95;21.17;;;;;;;;;;5043068;28;20181;-71
2022/10/22 04:06:15;;;;;;;41.35;21.13;;;;;;;;;;5032540;28;20190;-71
2022/10/22 04:08:42;;;;;;;39.53;20.83;;;;;;;;;;5042940;28;20650;-72
2022/10/22 04:11:09;;;;;;;40.33;19.38;;;;;;;;;;5034846;28;20224;-71
2022/10/22 04:13:34;;;;;;;41.10;20.13;;;;;;;;;;5034143;28;20206;-72
2022/10/22 04:16:29;;;;;;;42.70;20.63;;;;;;;;;;5033520;28;20236;-72
2022/10/22 04:18:55;;;;;;;42.92;20.65;;;;;;;;;;5034939;28;20563;-72
2022/10/22 04:21:20;;;;;;;39.00;19.88;;;;;;;;;;5032432;28;20193;-72
2022/10/22 04:23:48;;;;;;;41.10;20.42;;;;;;;;;;5028395;28;20182;-72
2022/10/22 04:26:15;;;;;;;45.75;20.83;;;;;;;;;;5038705;28;20197;-72
2022/10/22 04:28:40;;;;;;;42.67;20.80;;;;;;;;;;5040032;28;20280;-72
2022/10/22 04:31:08;;;;;;;46.28;21.85;;;;;;;;;;5031196;28;20598;-72
2022/10/22 04:33:33;;;;;;;44.17;20.10;;;;;;;;;;5036499;28;20253;-72
2022/10/22 04:35:58;;;;;;;35.70;19.98;;;;;;;;;;5037589;28;20171;-72
2022/10/22 04:38:24;;;;;;;44.08;20.55;;;;;;;;;;5033141;28;20213;-72
2022/10/22 04:40:49;;;;;;;39.28;19.90;;;;;;;;;;5031380;28;20637;-72
2022/10/22 04:43:14;;;;;;;38.63;19.70;;;;;;;;;;5038175;28;20237;-72
2022/10/22 04:45:39;;;;;;;34.45;18.50;;;;;;;;;;5036690;28;20213;-72
2022/10/22 04:48:05;;;;;;;44.38;18.80;;;;;;;;;;5031050;28;20190;-72
2022/10/22 04:50:31;;;;;;;43.92;18.45;;;;;;;;;;5033975;28;20633;-72
2022/10/22 04:52:56;;;;;;;46.97;20.05;;;;;;;;;;5038553;28;20185;-72
2022/10/22 04:55:21;;;;;;;39.72;20.35;;;;;;;;;;5042654;28;20272;-72
2022/10/22 04:57:46;;;;;;;43.67;19.85;;;;;;;;;;5029323;28;20502;-71
2022/10/22 05:00:12;;;;;;;47.63;21.05;;;;;;;;;;5034271;28;20471;-72
2022/10/22 05:02:37;;;;;;;44.75;20.50;;;;;;;;;;5029360;28;20193;-72
2022/10/22 05:05:03;;;;;;;34.67;18.42;;;;;;;;;;5030495;28;20178;-71
2022/10/22 05:07:28;;;;;;;33.58;18.77;;;;;;;;;;5031630;28;20178;-71
2022/10/22 05:09:54;;;;;;;40.47;20.33;;;;;;;;;;5032096;28;20185;-72
2022/10/22 05:12:19;;;;;;;44.42;20.58;;;;;;;;;;5032931;28;20191;-72
2022/10/22 05:14:45;;;;;;;40.13;18.92;;;;;;;;;;5042444;28;20198;-71
2022/10/22 05:17:10;;;;;;;36.72;18.45;;;;;;;;;;5036089;28;20641;-71
2022/10/22 05:19:36;;;;;;;44.55;20.30;;;;;;;;;;5034845;28;20181;-72
2022/10/22 05:22:03;;;;;;;39.72;20.52;;;;;;;;;;5036781;28;20181;-72
2022/10/22 05:24:30;;;;;;;38.70;19.63;;;;;;;;;;5029419;28;20232;-72
2022/10/22 05:26:57;;;;;;;37.67;19.00;;;;;;;;;;5041223;28;20235;-71
2022/10/22 05:29:23;;;;;;;38.70;19.48;;;;;;;;;;5031432;28;20192;-72
2022/10/22 05:31:49;;;;;;;46.38;19.17;;;;;;;;;;5041257;28;20289;-71
2022/10/22 05:34:15;;;;;;;43.80;19.88;;;;;;;;;;5026338;28;20758;-71
2022/10/22 05:36:40;;;;;;;49.13;19.45;;;;;;;;;;5039303;28;20261;-72
2022/10/22 05:39:06;;;;;;;36.95;17.45;;;;;;;;;;5035631;28;20284;-72
2022/10/22 05:41:32;;;;;;;37.60;19.15;;;;;;;;;;5028028;28;20186;-72
2022/10/22 05:43:59;;;;;;;35.33;18.63;;;;;;;;;;5033093;28;20209;-72
2022/10/22 05:46:29;;;;;;;39.80;18.90;;;;;;;;;;5033595;28;20202;-72
2022/10/22 05:48:57;;;;;;;42.90;20.40;;;;;;;;;;5030063;28;20199;-72
2022/10/22 05:51:24;;;;;;;42.67;20.35;;;;;;;;;;5033355;28;20182;-72
2022/10/22 05:53:52;;;;;;;38.80;19.42;;;;;;;;;;5039216;28;20912;-72
2022/10/22 05:56:18;;;;;;;40.13;18.95;;;;;;;;;;5037602;28;20185;-71
2022/10/22 05:58:44;;;;;;;33.22;19.02;;;;;;;;;;5041282;28;20186;-72
2022/10/22 06:01:15;;;;;;;38.88;20.15;;;;;;;;;;5038562;28;20240;-72
2022/10/22 06:03:42;;;;;;;40.03;20.58;;;;;;;;;;5036154;28;20308;-72
2022/10/22 06:06:18;;;;;;;43.63;19.30;;;;;;;;;;5034375;28;20197;-72
2022/10/22 06:08:46;;;;;;;42.63;19.23;;;;;;;;;;5031635;28;20517;-72
2022/10/22 06:11:11;;;;;;;37.03;18.85;;;;;;;;;;5040602;28;20182;-72
2022/10/22 06:13:37;;;;;;;36.03;18.23;;;;;;;;;;5033564;28;21551;-71
2022/10/22 06:16:03;;;;;;;36.58;17.70;;;;;;;;;;5032051;28;20658;-72
2022/10/22 06:18:28;;;;;;;38.50;17.85;;;;;;;;;;5039465;28;20261;-71
2022/10/22 06:20:53;;;;;;;36.25;17.42;;;;;;;;;;5044024;28;20269;-72
2022/10/22 06:23:19;;;;;;;44.38;18.52;;;;;;;;;;5045817;28;20312;-72
2022/10/22 06:25:55;;;;;;;44.40;19.27;;;;;;;;;;5038016;28;20259;-72
2022/10/22 06:28:20;;;;;;;34.28;16.15;;;;;;;;;;5032175;28;20206;-71
2022/10/22 06:30:45;;;;;;;38.75;17.55;;;;;;;;;;5033014;28;20240;-72
2022/10/22 06:33:11;;;;;;;34.45;17.00;;;;;;;;;;4333434;28;10000715;-71
2022/10/22 06:35:36;;;;;;;29.83;15.98;;;;;;;;;;5033169;28;20568;-72
2022/10/22 06:38:01;;;;;;;33.85;17.25;;;;;;;;;;5040749;28;20185;-71
2022/10/22 06:40:27;;;;;;;35.03;17.38;;;;;;;;;;5034014;28;20208;-71
2022/10/22 06:42:52;;;;;;;34.42;16.30;;;;;;;;;;5027012;28;20272;-71
2022/10/22 06:45:17;;;;;;;31.65;17.08;;;;;;;;;;5035907;28;20181;-71
2022/10/22 06:47:43;;;;;;;35.60;17.95;;;;;;;;;;5032829;28;20186;-72
2022/10/22 06:50:08;;;;;;;41.47;17.65;;;;;;;;;;5027852;28;20646;-71
2022/10/22 06:52:33;;;;;;;41.13;17.95;;;;;;;;;;5036022;28;20617;-71
2022/10/22 06:54:59;;;;;;;37.15;18.65;;;;;;;;;;5029097;28;20741;-70
2022/10/22 06:57:24;;;;;;;38.42;17.75;;;;;;;;;;5034007;28;20683;-71
2022/10/22 06:59:49;;;;;;;38.47;17.90;;;;;;;;;;5034602;28;20228;-72
2022/10/22 07:02:15;;;;;;;28.05;16.17;;;;;;;;;;5034321;28;20226;-71
2022/10/22 07:04:40;;;;;;;29.45;15.68;;;;;;;;;;5029995;28;20186;-72
2022/10/22 07:07:06;;;;;;;31.20;16.08;;;;;;;;;;5035957;28;20232;-71
2022/10/22 07:09:31;;;;;;;39.10;16.67;;;;;;;;;;5030539;28;20387;-71
2022/10/22 07:11:56;;;;;;;38.30;17.05;;;;;;;;;;5040082;28;20192;-71
2022/10/22 07:14:22;;;;;;;32.95;16.88;;;;;;;;;;5029964;28;20198;-71
2022/10/22 07:16:47;;;;;;;31.38;15.23;;;;;;;;;;5029744;28;20214;-71
2022/10/22 07:19:13;;;;;;;35.28;16.00;;;;;;;;;;5033280;28;20186;-71
2022/10/22 07:21:38;;;;;;;25.35;13.15;;;;;;;;;;5027332;28;20212;-71
2022/10/22 07:24:04;;;;;;;26.80;14.55;;;;;;;;;;5029293;28;20190;-71
2022/10/22 07:26:31;;;;;;;29.15;15.43;;;;;;;;;;5037251;28;20239;-71
2022/10/22 07:28:57;;;;;;;28.55;14.68;;;;;;;;;;5033639;28;20292;-71
2022/10/22 07:31:22;;;;;;;23.80;12.50;;;;;;;;;;5034076;28;20186;-71
2022/10/22 07:33:48;;;;;;;21.88;13.60;;;;;;;;;;5027415;28;20761;-71
2022/10/22 07:36:16;;;;;;;27.63;14.07;;;;;;;;;;5033294;28;20190;-71
2022/10/22 07:38:46;;;;;;;24.67;13.77;;;;;;;;;;5041235;28;20572;-70
2022/10/22 07:41:13;;;;;;;25.40;13.05;;;;;;;;;;5032929;28;20193;-71
2022/10/22 07:43:38;;;;;;;21.90;12.15;;;;;;;;;;5037749;28;20185;-71
2022/10/22 07:46:03;;;;;;;22.85;12.50;;;;;;;;;;5038111;28;20498;-71
2022/10/22 07:48:29;;;;;;;33.85;13.02;;;;;;;;;;5040593;28;20277;-71
2022/10/22 07:50:55;;;;;;;22.65;11.65;;;;;;;;;;5028766;28;20548;-71
2022/10/22 07:53:21;;;;;;;22.00;11.48;;;;;;;;;;5036645;28;20676;-71
2022/10/22 07:55:47;;;;;;;23.98;9.93;;;;;;;;;;5041651;28;20190;-71
2022/10/22 07:58:13;;;;;;;23.38;9.80;;;;;;;;;;5029084;28;20186;-71
2022/10/22 08:00:38;;;;;;;16.40;9.50;;;;;;;;;;5031766;28;20243;-71
2022/10/22 08:03:03;;;;;;;18.98;9.07;;;;;;;;;;5032059;28;20265;-71
2022/10/22 08:05:29;;;;;;;21.42;8.16;;;;;;;;;;4685569;28;10000884;-70
2022/10/22 08:07:54;;;;;;;19.55;9.73;;;;;;;;;;5035902;28;20641;-71
2022/10/22 08:10:19;;;;;;;20.42;9.30;;;;;;;;;;5032448;28;20190;-70
2022/10/22 08:12:45;;;;;;;16.30;8.80;;;;;;;;;;5028993;28;20189;-71
2022/10/22 08:15:10;;;;;;;20.85;8.13;;;;;;;;;;5033932;28;20213;-71
2022/10/22 08:17:35;;;;;;;17.23;8.55;;;;;;;;;;5030255;28;20666;-71
2022/10/22 08:20:01;;;;;;;17.17;8.65;;;;;;;;;;5031091;28;20185;-71
2022/10/22 08:22:26;;;;;;;15.60;8.45;;;;;;;;;;5036806;28;20190;-70
2022/10/22 08:24:52;;;;;;;14.95;8.52;;;;;;;;;;5035395;28;20178;-71
2022/10/22 08:27:17;;;;;;;19.05;8.73;;;;;;;;;;5028594;28;20182;-71
2022/10/22 08:29:43;;;;;;;18.10;8.20;;;;;;;;;;5027541;28;20611;-70
2022/10/22 08:32:08;;;;;;;21.42;7.72;;;;;;;;;;5029681;28;20235;-70
2022/10/22 08:34:33;;;;;;;13.82;7.85;;;;;;;;;;5034084;28;20225;-71
2022/10/22 08:36:59;;;;;;;14.70;6.75;;;;;;;;;;5025850;28;20265;-71
2022/10/22 08:39:24;;;;;;;18.63;7.20;;;;;;;;;;5031166;28;20220;-71
2022/10/22 08:42:32;;;;;;;10.10;6.00;;;;;;;;;;5033735;28;20209;-71
2022/10/22 08:44:58;;;;;;;21.45;6.25;;;;;;;;;;5026437;28;20192;-71
2022/10/22 08:47:48;;;;;;;13.65;6.30;;;;;;;;;;5030235;28;20182;-69
2022/10/22 08:50:18;;;;;;;15.65;6.15;;;;;;;;;;5038957;28;20239;-71
2022/10/22 08:52:50;;;;;;;13.35;5.32;;;;;;;;;;5031954;28;20635;-70
2022/10/22 08:55:16;;;;;;;11.60;5.07;;;;;;;;;;5026307;28;20251;-70
2022/10/22 08:57:55;;;;;;;10.73;5.00;;;;;;;;;;5031242;28;20194;-70
2022/10/22 09:00:27;;;;;;;12.90;4.63;;;;;;;;;;5029341;28;20178;-70
2022/10/22 09:03:14;;;;;;;16.27;4.88;;;;;;;;;;5034971;28;20698;-69
2022/10/22 09:05:57;;;;;;;11.80;4.72;;;;;;;;;;5030784;28;20517;-71
2022/10/22 09:08:23;;;;;;;9.70;4.07;;;;;;;;;;5026265;28;20239;-70
2022/10/22 09:10:53;;;;;;;11.77;4.65;;;;;;;;;;5030373;28;20189;-70
2022/10/22 09:13:21;;;;;;;10.63;3.70;;;;;;;;;;5031510;28;20213;-72
2022/10/22 09:15:53;;;;;;;10.13;4.13;;;;;;;;;;5026312;28;20194;-69
2022/10/22 09:18:26;;;;;;;16.85;3.90;;;;;;;;;;5025055;28;20186;-71
2022/10/22 09:21:30;;;;;;;11.02;4.35;;;;;;;;;;5029056;28;20181;-70
2022/10/22 09:24:04;;;;;;;10.27;3.60;;;;;;;;;;5021763;28;20228;-69
2022/10/22 09:26:35;;;;;;;13.18;3.85;;;;;;;;;;5025185;28;20488;-71
2022/10/22 09:29:02;;;;;;;12.65;3.58;;;;;;;;;;5034421;28;20189;-70
2022/10/22 09:31:29;;;;;;;14.43;3.88;;;;;;;;;;5035244;28;20734;-71
2022/10/22 09:33:56;;;;;;;9.20;3.00;;;;;;;;;;5041814;28;20225;-69
2022/10/22 09:36:22;;;;;;;13.10;3.85;;;;;;;;;;5039181;28;20203;-72
2022/10/22 09:38:52;;;;;;;7.93;3.30;;;;;;;;;;5034450;28;20506;-71
2022/10/22 09:41:19;;;;;;;14.18;4.07;;;;;;;;;;5039884;28;20189;-71
2022/10/22 09:43:48;;;;;;;9.13;2.92;;;;;;;;;;5041514;28;20280;-70
2022/10/22 09:46:22;;;;;;;10.30;2.95;;;;;;;;;;5039984;28;20692;-69
2022/10/22 09:48:59;;;;;;;11.48;3.45;;;;;;;;;;5042355;28;20677;-69
2022/10/22 09:51:37;;;;;;;12.00;3.40;;;;;;;;;;5032031;28;20603;-70
2022/10/22 09:54:18;;;;;;;10.18;3.15;;;;;;;;;;5038675;28;20198;-70
2022/10/22 09:56:54;;;;;;;10.88;3.08;;;;;;;;;;5033231;28;20204;-70
2022/10/22 09:59:28;;;;;;;13.45;3.30;;;;;;;;;;5034138;28;20182;-69
2022/10/22 10:02:14;;;;;;;12.85;3.33;;;;;;;;;;5042807;28;20662;-70
2022/10/22 10:04:45;;;;;;;14.13;3.88;;;;;;;;;;5052042;28;20249;-70
2022/10/22 10:07:19;;;;;;;10.55;2.92;;;;;;;;;;5030889;28;20292;-69
2022/10/22 10:09:46;;;;;;;10.15;3.00;;;;;;;;;;5030600;28;20264;-69
2022/10/22 10:12:49;;;;;;;9.95;2.85;;;;;;;;;;5030513;28;20189;-69
2022/10/22 10:15:28;;;;;;;10.75;2.83;;;;;;;;;;5031364;28;20259;-69
2022/10/22 10:18:14;;;;;;;18.98;2.90;;;;;;;;;;5031750;28;20180;-70
2022/10/22 10:21:03;;;;;;;10.93;2.72;;;;;;;;;;5037258;28;20182;-72
2022/10/22 10:24:02;;;;;;;10.93;2.95;;;;;;;;;;5032877;28;20166;-69
2022/10/22 10:26:55;;;;;;;12.27;3.53;;;;;;;;;;5028678;28;20202;-68
2022/10/22 10:29:34;;;;;;;10.30;3.20;;;;;;;;;;5031913;28;20414;-68
2022/10/22 10:32:24;;;;;;;13.93;3.35;;;;;;;;;;5040687;28;20656;-72
2022/10/22 10:35:08;;;;;;;7.55;3.10;;;;;;;;;;5033812;28;20939;-69
2022/10/22 10:37:45;;;;;;;13.57;3.83;;;;;;;;;;5039732;28;20184;-70
2022/10/22 10:40:30;;;;;;;7.35;3.40;;;;;;;;;;4685606;28;10000288;-70
2022/10/22 10:43:20;;;;;;;16.50;3.72;;;;;;;;;;5031005;28;20320;-70
2022/10/22 10:45:54;;;;;;;11.07;4.43;;;;;;;;;;5035023;28;20554;-70
2022/10/22 10:48:31;;;;;;;18.13;4.90;;;;;;;;;;5030550;28;20190;-71
2022/10/22 10:51:09;;;;;;;11.02;3.97;;;;;;;;;;5035593;28;20182;-71
2022/10/22 10:53:58;;;;;;;10.90;4.95;;;;;;;;;;5040483;28;20205;-71
2022/10/22 10:56:29;;;;;;;11.27;4.72;;;;;;;;;;5037694;28;20193;-71
2022/10/22 10:59:19;;;;;;;12.95;4.22;;;;;;;;;;5030959;28;20252;-69
2022/10/22 11:01:44;;;;;;;12.52;4.25;;;;;;;;;;5030068;28;20284;-69
2022/10/22 11:04:31;;;;;;;11.70;4.53;;;;;;;;;;5027134;28;20188;-69
2022/10/22 11:07:03;;;;;;;10.90;4.75;;;;;;;;;;5034157;28;20290;-69
2022/10/22 11:09:44;;;;;;;12.15;4.15;;;;;;;;;;5034951;28;20209;-69
2022/10/22 11:12:17;;;;;;;8.88;3.70;;;;;;;;;;5029696;28;20494;-68
2022/10/22 11:15:02;;;;;;;9.02;4.45;;;;;;;;;;5027646;28;20202;-70
2022/10/22 11:17:48;;;;;;;9.82;4.80;;;;;;;;;;5031383;28;20186;-69
2022/10/22 11:20:24;;;;;;;12.88;4.70;;;;;;;;;;5031688;28;20690;-70
2022/10/22 11:22:56;;;;;;;10.68;4.78;;;;;;;;;;5042743;28;20185;-68
2022/10/22 11:25:26;;;;;;;10.52;4.53;;;;;;;;;;5037242;28;20681;-70
2022/10/22 11:28:04;;;;;;;11.55;4.20;;;;;;;;;;5030115;28;20202;-69
2022/10/22 11:30:34;;;;;;;14.45;4.07;;;;;;;;;;5036200;28;20228;-68
2022/10/22 11:33:04;;;;;;;14.48;3.72;;;;;;;;;;5030787;28;20240;-69
2022/10/22 11:35:38;;;;;;;10.02;3.83;;;;;;;;;;5035851;28;20224;-69
2022/10/22 11:38:06;;;;;;;10.75;3.97;;;;;;;;;;5041591;28;20661;-69
2022/10/22 11:40:35;;;;;;;7.68;3.28;;;;;;;;;;5043474;28;20211;-69
2022/10/22 11:43:07;;;;;;;14.13;3.67;;;;;;;;;;5036937;28;20186;-68
2022/10/22 11:45:37;;;;;;;12.10;3.97;;;;;;;;;;5038394;28;20616;-69
2022/10/22 11:48:09;;;;;;;9.57;3.80;;;;;;;;;;5038296;28;20216;-69
2022/10/22 11:50:41;;;;;;;10.88;3.88;;;;;;;;;;5032266;28;20697;-69
2022/10/22 11:53:12;;;;;;;13.90;3.70;;;;;;;;;;5035140;28;20188;-67
2022/10/22 11:55:50;;;;;;;10.13;3.47;;;;;;;;;;5027726;28;20841;-68
2022/10/22 11:58:28;;;;;;;10.68;4.00;;;;;;;;;;5030875;28;20181;-68
2022/10/22 12:01:16;;;;;;;8.48;3.55;;;;;;;;;;5038246;28;20648;-69
2022/10/22 12:04:12;;;;;;;14.65;3.85;;;;;;;;;;5035696;28;20193;-69
2022/10/22 12:06:59;;;;;;;8.82;3.40;;;;;;;;;;5028695;28;20186;-67
2022/10/22 12:09:29;;;;;;;13.85;3.45;;;;;;;;;;5026421;28;20182;-67
2022/10/22 12:12:12;;;;;;;12.77;3.40;;;;;;;;;;5028192;28;20711;-67
2022/10/22 12:14:55;;;;;;;14.25;3.67;;;;;;;;;;5028550;28;20224;-67
2022/10/22 12:17:21;;;;;;;12.05;3.47;;;;;;;;;;5028282;28;20236;-68
2022/10/22 12:19:53;;;;;;;12.18;3.47;;;;;;;;;;5032652;28;20177;-68
2022/10/22 12:22:23;;;;;;;9.77;3.10;;;;;;;;;;5027466;28;20243;-68
2022/10/22 12:24:53;;;;;;;12.48;3.05;;;;;;;;;;5028066;28;20656;-68
2022/10/22 12:27:22;;;;;;;13.20;3.78;;;;;;;;;;5031925;28;20189;-68
2022/10/22 12:29:52;;;;;;;13.80;3.38;;;;;;;;;;5029448;28;20185;-68
2022/10/22 12:32:17;;;;;;;13.65;3.95;;;;;;;;;;5027180;28;20264;-68
2022/10/22 12:34:50;;;;;;;15.95;3.35;;;;;;;;;;5031344;28;20205;-68
2022/10/22 12:37:17;;;;;;;9.77;3.35;;;;;;;;;;5025233;28;20193;-68
2022/10/22 12:39:44;;;;;;;12.50;3.20;;;;;;;;;;5023598;28;20268;-71
2022/10/22 12:42:18;;;;;;;10.82;2.97;;;;;;;;;;5025417;28;20213;-68
2022/10/22 12:44:44;;;;;;;9.82;3.03;;;;;;;;;;5027400;28;20174;-68
2022/10/22 12:47:15;;;;;;;10.05;3.20;;;;;;;;;;5025416;28;20239;-69
2022/10/22 12:49:44;;;;;;;9.90;2.85;;;;;;;;;;5026456;28;20625;-69
2022/10/22 12:52:16;;;;;;;13.35;3.20;;;;;;;;;;5025343;28;20503;-69
2022/10/22 12:54:43;;;;;;;10.55;2.97;;;;;;;;;;5024482;28;20198;-69
2022/10/22 12:57:13;;;;;;;11.73;2.80;;;;;;;;;;5025892;28;20522;-69
2022/10/22 12:59:40;;;;;;;12.15;2.72;;;;;;;;;;5035377;28;20190;-69
2022/10/22 13:02:15;;;;;;;10.20;2.65;;;;;;;;;;5034724;28;20213;-69
2022/10/22 13:04:40;;;;;;;10.10;2.78;;;;;;;;;;5031360;28;20275;-70
2022/10/22 13:07:16;;;;;;;6.57;2.60;;;;;;;;;;5027833;28;20687;-67
2022/10/22 13:10:13;;;;;;;12.43;3.00;;;;;;;;;;5029041;28;20184;-68
2022/10/22 13:12:43;;;;;;;12.40;2.83;;;;;;;;;;5027359;28;20288;-67
2022/10/22 13:15:30;;;;;;;12.40;2.95;;;;;;;;;;5019057;28;20305;-67
2022/10/22 13:18:32;;;;;;;11.45;2.80;;;;;;;;;;5029982;28;20268;-70
2022/10/22 13:21:02;;;;;;;11.90;2.88;;;;;;;;;;5025742;28;20601;-69
2022/10/22 13:23:29;;;;;;;11.65;2.90;;;;;;;;;;5028413;28;20696;-68
2022/10/22 13:26:13;;;;;;;14.07;2.80;;;;;;;;;;5031075;28;20628;-68
2022/10/22 13:28:40;;;;;;;9.55;2.60;;;;;;;;;;5031711;28;20262;-68
2022/10/22 13:31:18;;;;;;;8.30;2.78;;;;;;;;;;5029855;28;20251;-68
2022/10/22 13:33:50;;;;;;;14.52;2.72;;;;;;;;;;5030729;28;20229;-67
2022/10/22 13:36:16;;;;;;;16.42;3.08;;;;;;;;;;5027243;28;20485;-68
2022/10/22 13:38:43;;;;;;;9.20;2.80;;;;;;;;;;5028496;28;20193;-67
2022/10/22 13:41:29;;;;;;;9.10;2.20;;;;;;;;;;5029087;28;20235;-68
2022/10/22 13:43:55;;;;;;;11.23;3.05;;;;;;;;;;5029734;28;20738;-66
2022/10/22 13:46:21;;;;;;;15.68;2.75;;;;;;;;;;5029001;28;20182;-67
2022/10/22 13:48:49;;;;;;;14.35;3.00;;;;;;;;;;5030792;28;20194;-67
2022/10/22 13:51:19;;;;;;;8.40;2.00;;;;;;;;;;5026350;28;20186;-67
2022/10/22 13:53:46;;;;;;;15.18;2.85;;;;;;;;;;5027540;28;20236;-68
2022/10/22 13:56:17;;;;;;;11.73;2.72;;;;;;;;;;5029584;28;20193;-67
2022/10/22 13:58:44;;;;;;;10.20;1.80;;;;;;;;;;5028188;28;20463;-68
2022/10/22 14:01:23;;;;;;;8.85;2.22;;;;;;;;;;5029422;28;20717;-69
2022/10/22 14:03:51;;;;;;;13.25;4.30;;;;;;;;;;4678837;28;10000396;-68
2022/10/22 14:06:18;;;;;;;9.02;3.92;;;;;;;;;;5028814;28;20717;-68
2022/10/22 14:08:47;;;;;;;13.32;2.90;;;;;;;;;;5030149;28;20210;-68
2022/10/22 14:11:13;;;;;;;12.77;2.45;;;;;;;;;;5029963;28;20186;-67
2022/10/22 14:13:38;;;;;;;13.95;3.05;;;;;;;;;;5034788;28;20645;-68
2022/10/22 14:16:12;;;;;;;12.20;2.42;;;;;;;;;;5032600;28;20556;-68
2022/10/22 14:18:38;;;;;;;15.20;3.22;;;;;;;;;;5038406;28;20287;-68
2022/10/22 14:21:06;;;;;;;8.32;2.50;;;;;;;;;;5035444;28;21047;-68
2022/10/22 14:23:33;;;;;;;10.52;2.38;;;;;;;;;;5036225;28;20296;-69
2022/10/22 14:25:59;;;;;;;10.75;2.60;;;;;;;;;;5034611;28;20247;-68
2022/10/22 14:28:24;;;;;;;8.48;2.25;;;;;;;;;;5039255;28;20202;-68
2022/10/22 14:30:50;;;;;;;14.25;3.03;;;;;;;;;;5037579;28;20184;-69
2022/10/22 14:33:21;;;;;;;9.05;3.00;;;;;;;;;;5039349;28;20261;-69
2022/10/22 14:35:47;;;;;;;10.63;1.90;;;;;;;;;;5040101;28;20181;-69
2022/10/22 14:38:12;;;;;;;11.35;2.40;;;;;;;;;;5037240;28;20189;-70
2022/10/22 14:40:41;;;;;;;12.02;2.88;;;;;;;;;;5038843;28;20291;-68
2022/10/22 14:43:30;;;;;;;11.65;2.58;;;;;;;;;;5039374;28;20200;-69